An Run Da 2 — BHNX — position and weather

sailwx.info

Track history (hours):
 
Tides and Currents Weather Stations Pressure Air Temp Water Temp Dewpoint Dewpoint Depression Visibility Wind Speed Wind Dir Waves Ship Positions

An Run Da 2

Last reported at 2017-Jul-27 08:27 UTC. Time now 2017-Jul-27 08:58 UTC.
Position N 39°54' E 119°35'.

Length 147 m; draft 5 m.

Type: Cargo ship. MMSI: 413360230.

Date/timePositionNaut miles runAvg speedWind from/ knotsBaromVisibWave heightAir tempDewpointWater temp
2017-Jul-27 08:27N 39°54' E 119°35'0 0.0
2017-Jul-27 07:57N 39°54' E 119°35'0 0.0
2017-Jul-27 07:15N 39°54' E 119°35'0 0.0
2017-Jul-27 06:51N 39°54' E 119°35'0 0.0
2017-Jul-27 06:27N 39°54' E 119°35'0 0.0
2017-Jul-27 05:57N 39°54' E 119°35'0 0.0
2017-Jul-27 05:27N 39°55' E 119°35'0 0.0
2017-Jul-27 04:51N 39°54' E 119°35'0 0.0
2017-Jul-27 04:21N 39°54' E 119°35'0 0.0
2017-Jul-27 02:57N 39°54' E 119°35'0 0.0
2017-Jul-27 02:09N 39°54' E 119°35'0 0.0
2017-Jul-27 01:15N 39°54' E 119°35'0 0.0
2017-Jul-27 00:51N 39°54' E 119°35'0 0.0
2017-Jul-26 18:57N 39°55' E 119°35'0 0.7
2017-Jul-26 18:30N 39°54' E 119°35'3 6.0
2017-Jul-26 18:00N 39°53' E 119°38'5 9.8
2017-Jul-26 17:30N 39°48' E 119°42'67 9.8
2017-Jul-26 10:39N 38°54' E 120°33'2311.2
2017-Jul-26 08:34N 38°37' E 120°55'110.3
2017-Jul-26 08:30N 38°37' E 120°55'712.2
2017-Jul-26 07:58N 38°34' E 121°03'613.0
2017-Jul-26 07:30N 38°31' E 121°09'612.7
2017-Jul-26 07:00N 38°27' E 121°16'712.8
2017-Jul-26 06:30N 38°24' E 121°23'612.4
2017-Jul-26 06:00N 38°20' E 121°29'611.8
2017-Jul-26 05:30N 38°17' E 121°35'611.5
2017-Jul-26 04:58N 38°13' E 121°42'511.4
2017-Jul-26 04:29N 38°10' E 121°47'511.2
2017-Jul-26 04:00N 38°07' E 121°53'611.1
2017-Jul-26 03:30N 38°03' E 121°58'511.1
2017-Jul-26 03:00N 37°60' E 122°04'511.0
2017-Jul-26 02:30N 37°57' E 122°10'611.3
2017-Jul-26 02:00N 37°53' E 122°15'611.6
2017-Jul-26 01:30N 37°50' E 122°21'611.9
2017-Jul-26 01:00N 37°47' E 122°27'612.1
2017-Jul-26 00:30N 37°43' E 122°34'612.3
2017-Jul-26 00:00N 37°40' E 122°40'1212.3
2017-Jul-25 23:03N 37°31' E 122°50'112.4
2017-Jul-25 22:59N 37°30' E 122°50'32810.8
2017-Jul-24 16:32N 32°03' E 122°36'613.0
2017-Jul-24 16:06N 31°57' E 122°36'212.7
2017-Jul-24 15:58N 31°56' E 122°35'3411.3
2017-Jul-24 13:00N 31°22' E 122°33'510.0
2017-Jul-24 12:30N 31°17' E 122°33'5 9.2
2017-Jul-24 12:00N 31°13' E 122°33'5 9.4
2017-Jul-24 11:30N 31°08' E 122°33'4 8.1
2017-Jul-24 10:59N 31°04' E 122°32'4 8.1
2017-Jul-24 10:30N 30°60' E 122°32'4 7.8
2017-Jul-24 09:59N 30°56' E 122°32'5 9.6
2017-Jul-24 09:30N 30°53' E 122°28'611.3
2017-Jul-24 09:00N 30°50' E 122°22'510.3
2017-Jul-24 08:30N 30°46' E 122°18'5 9.7
2017-Jul-24 08:00N 30°42' E 122°16'5 9.9
2017-Jul-24 07:30N 30°37' E 122°14'610.5
2017-Jul-24 06:58N 30°32' E 122°10'613.2
2017-Jul-24 06:30N 30°31' E 122°03'612.5
2017-Jul-24 06:00N 30°31' E 121°56'611.9
2017-Jul-24 05:29N 30°30' E 121°49'511.0
2017-Jul-24 05:00N 30°29' E 121°43'5 9.6
2017-Jul-24 04:30N 30°30' E 121°37'7 8.4
2017-Jul-24 03:38N 30°32' E 121°29'4 7.5
2017-Jul-24 03:09N 30°33' E 121°25'19 7.8
2017-Jul-24 00:42N 30°34' E 121°03'1 0.1
2017-Jul-23 14:59N 30°33' E 121°01'9 0.2
2017-Jul-21 21:39N 30°34' E 121°12'0 0.0
2017-Jul-21 21:24N 30°34' E 121°12'0 0.0
2017-Jul-21 20:54N 30°34' E 121°12'0 0.0
2017-Jul-21 20:30N 30°34' E 121°12'0 0.0
2017-Jul-21 19:15N 30°34' E 121°12'0 0.0
2017-Jul-21 19:00N 30°34' E 121°12'0 0.0
2017-Jul-21 17:00N 30°34' E 121°12'1 0.2
2017-Jul-21 13:13N 30°33' E 121°11'1 2.0
2017-Jul-21 12:58N 30°33' E 121°11'4 7.5
2017-Jul-21 12:26N 30°34' E 121°16'5 9.9
2017-Jul-21 11:54N 30°34' E 121°22'4 8.9
2017-Jul-21 11:30N 30°33' E 121°26'7 8.5
2017-Jul-21 10:40N 30°32' E 121°34'2 8.6
2017-Jul-21 10:25N 30°31' E 121°36'55 6.9
2017-Jul-21 02:24N 30°13' E 122°36'2310.5
2017-Jul-21 00:10N 29°49' E 122°39'1310.1
2017-Jul-20 22:54N 29°37' E 122°35'34210.1
2017-Jul-19 13:05N 24°45' E 119°15'310.1
2017-Jul-19 12:49N 24°43' E 119°13'310.0
2017-Jul-19 12:30N 24°41' E 119°10'810.0
2017-Jul-19 11:41N 24°34' E 119°05'1210.5
2017-Jul-19 10:35N 24°25' E 118°58'110.7
2017-Jul-19 10:30N 24°24' E 118°57'  
Track history (hours):
 
Tides and Currents Weather Stations Pressure Air Temp Water Temp Dewpoint Dewpoint Depression Visibility Wind Speed Wind Dir Waves Ship Positions

An Run Da 2

Last reported at 2017-Jul-27 08:27 UTC. Time now 2017-Jul-27 08:58 UTC.
Position N 39°54' E 119°35'.

Length 147 m; draft 5 m.

Type: Cargo ship. MMSI: 413360230.

Date/timePositionNaut miles runAvg speedWind from/ knotsBaromVisibWave heightAir tempDewpointWater temp
2017-Jul-27 08:27N 39°54' E 119°35'0 0.0
2017-Jul-27 07:57N 39°54' E 119°35'0 0.0
2017-Jul-27 07:15N 39°54' E 119°35'0 0.0
2017-Jul-27 06:51N 39°54' E 119°35'0 0.0
2017-Jul-27 06:27N 39°54' E 119°35'0 0.0
2017-Jul-27 05:57N 39°54' E 119°35'0 0.0
2017-Jul-27 05:27N 39°55' E 119°35'0 0.0
2017-Jul-27 04:51N 39°54' E 119°35'0 0.0
2017-Jul-27 04:21N 39°54' E 119°35'0 0.0
2017-Jul-27 02:57N 39°54' E 119°35'0 0.0
2017-Jul-27 02:09N 39°54' E 119°35'0 0.0
2017-Jul-27 01:15N 39°54' E 119°35'0 0.0
2017-Jul-27 00:51N 39°54' E 119°35'0 0.0
2017-Jul-26 18:57N 39°55' E 119°35'0 0.7
2017-Jul-26 18:30N 39°54' E 119°35'3 6.0
2017-Jul-26 18:00N 39°53' E 119°38'5 9.8
2017-Jul-26 17:30N 39°48' E 119°42'67 9.8
2017-Jul-26 10:39N 38°54' E 120°33'2311.2
2017-Jul-26 08:34N 38°37' E 120°55'110.3
2017-Jul-26 08:30N 38°37' E 120°55'712.2
2017-Jul-26 07:58N 38°34' E 121°03'613.0
2017-Jul-26 07:30N 38°31' E 121°09'612.7
2017-Jul-26 07:00N 38°27' E 121°16'712.8
2017-Jul-26 06:30N 38°24' E 121°23'612.4
2017-Jul-26 06:00N 38°20' E 121°29'611.8
2017-Jul-26 05:30N 38°17' E 121°35'611.5
2017-Jul-26 04:58N 38°13' E 121°42'511.4
2017-Jul-26 04:29N 38°10' E 121°47'511.2
2017-Jul-26 04:00N 38°07' E 121°53'611.1
2017-Jul-26 03:30N 38°03' E 121°58'511.1
2017-Jul-26 03:00N 37°60' E 122°04'511.0
2017-Jul-26 02:30N 37°57' E 122°10'611.3
2017-Jul-26 02:00N 37°53' E 122°15'611.6
2017-Jul-26 01:30N 37°50' E 122°21'611.9
2017-Jul-26 01:00N 37°47' E 122°27'612.1
2017-Jul-26 00:30N 37°43' E 122°34'612.3
2017-Jul-26 00:00N 37°40' E 122°40'1212.3
2017-Jul-25 23:03N 37°31' E 122°50'112.4
2017-Jul-25 22:59N 37°30' E 122°50'32810.8
2017-Jul-24 16:32N 32°03' E 122°36'613.0
2017-Jul-24 16:06N 31°57' E 122°36'212.7
2017-Jul-24 15:58N 31°56' E 122°35'3411.3
2017-Jul-24 13:00N 31°22' E 122°33'510.0
2017-Jul-24 12:30N 31°17' E 122°33'5 9.2
2017-Jul-24 12:00N 31°13' E 122°33'5 9.4
2017-Jul-24 11:30N 31°08' E 122°33'4 8.1
2017-Jul-24 10:59N 31°04' E 122°32'4 8.1
2017-Jul-24 10:30N 30°60' E 122°32'4 7.8
2017-Jul-24 09:59N 30°56' E 122°32'5 9.6
2017-Jul-24 09:30N 30°53' E 122°28'611.3
2017-Jul-24 09:00N 30°50' E 122°22'510.3
2017-Jul-24 08:30N 30°46' E 122°18'5 9.7
2017-Jul-24 08:00N 30°42' E 122°16'5 9.9
2017-Jul-24 07:30N 30°37' E 122°14'610.5
2017-Jul-24 06:58N 30°32' E 122°10'613.2
2017-Jul-24 06:30N 30°31' E 122°03'612.5
2017-Jul-24 06:00N 30°31' E 121°56'611.9
2017-Jul-24 05:29N 30°30' E 121°49'511.0
2017-Jul-24 05:00N 30°29' E 121°43'5 9.6
2017-Jul-24 04:30N 30°30' E 121°37'7 8.4
2017-Jul-24 03:38N 30°32' E 121°29'4 7.5
2017-Jul-24 03:09N 30°33' E 121°25'19 7.8
2017-Jul-24 00:42N 30°34' E 121°03'1 0.1
2017-Jul-23 14:59N 30°33' E 121°01'9 0.2
2017-Jul-21 21:39N 30°34' E 121°12'0 0.0
2017-Jul-21 21:24N 30°34' E 121°12'0 0.0
2017-Jul-21 20:54N 30°34' E 121°12'0 0.0
2017-Jul-21 20:30N 30°34' E 121°12'0 0.0
2017-Jul-21 19:15N 30°34' E 121°12'0 0.0
2017-Jul-21 19:00N 30°34' E 121°12'0 0.0
2017-Jul-21 17:00N 30°34' E 121°12'1 0.2
2017-Jul-21 13:13N 30°33' E 121°11'1 2.0
2017-Jul-21 12:58N 30°33' E 121°11'4 7.5
2017-Jul-21 12:26N 30°34' E 121°16'5 9.9
2017-Jul-21 11:54N 30°34' E 121°22'4 8.9
2017-Jul-21 11:30N 30°33' E 121°26'7 8.5
2017-Jul-21 10:40N 30°32' E 121°34'2 8.6
2017-Jul-21 10:25N 30°31' E 121°36'55 6.9
2017-Jul-21 02:24N 30°13' E 122°36'2310.5
2017-Jul-21 00:10N 29°49' E 122°39'1310.1
2017-Jul-20 22:54N 29°37' E 122°35'34210.1
2017-Jul-19 13:05N 24°45' E 119°15'310.1
2017-Jul-19 12:49N 24°43' E 119°13'310.0
2017-Jul-19 12:30N 24°41' E 119°10'810.0
2017-Jul-19 11:41N 24°34' E 119°05'1210.5
2017-Jul-19 10:35N 24°25' E 118°58'110.7
2017-Jul-19 10:30N 24°24' E 118°57'  

Dump ship's entire track history